sensor_id;sensor_type;location;lat;lon;timestamp;pressure;altitude;pressure_sealevel;temperature;humidity
62508;BME280;48556;51.972;4.624;2022-11-20T00:01:07;101445.44;;;3.65;59.17
62508;BME280;48556;51.972;4.624;2022-11-20T00:03:33;101453.94;;;3.91;58.22
62508;BME280;48556;51.972;4.624;2022-11-20T00:06:06;101453.63;;;3.79;57.60
62508;BME280;48556;51.972;4.624;2022-11-20T00:08:32;101455.16;;;4.05;57.45
62508;BME280;48556;51.972;4.624;2022-11-20T00:10:57;101445.53;;;4.03;57.21
62508;BME280;48556;51.972;4.624;2022-11-20T00:13:27;101446.03;;;3.88;57.41
62508;BME280;48556;51.972;4.624;2022-11-20T00:16:02;101450.63;;;3.98;57.46
62508;BME280;48556;51.972;4.624;2022-11-20T00:18:28;101458.56;;;4.03;56.94
62508;BME280;48556;51.972;4.624;2022-11-20T00:20:53;101450.16;;;4.13;57.37
62508;BME280;48556;51.972;4.624;2022-11-20T00:23:19;101448.88;;;3.97;58.09
62508;BME280;48556;51.972;4.624;2022-11-20T00:25:45;101444.75;;;4.05;57.63
62508;BME280;48556;51.972;4.624;2022-11-20T00:28:11;101439.44;;;4.01;58.39
62508;BME280;48556;51.972;4.624;2022-11-20T00:30:37;101454.16;;;4.00;58.56
62508;BME280;48556;51.972;4.624;2022-11-20T00:33:02;101447.34;;;3.70;59.56
62508;BME280;48556;51.972;4.624;2022-11-20T00:35:28;101442.81;;;3.63;59.66
62508;BME280;48556;51.972;4.624;2022-11-20T00:37:53;101437.94;;;3.75;59.49
62508;BME280;48556;51.972;4.624;2022-11-20T00:40:19;101432.16;;;4.24;57.87
62508;BME280;48556;51.972;4.624;2022-11-20T00:42:44;101439.66;;;3.76;59.01
62508;BME280;48556;51.972;4.624;2022-11-20T00:45:10;101448.88;;;3.64;59.46
62508;BME280;48556;51.972;4.624;2022-11-20T00:47:35;101442.97;;;3.69;59.15
62508;BME280;48556;51.972;4.624;2022-11-20T00:50:01;101443.19;;;3.77;58.48
62508;BME280;48556;51.972;4.624;2022-11-20T00:52:26;101425.88;;;3.79;58.40
62508;BME280;48556;51.972;4.624;2022-11-20T00:54:52;101420.22;;;3.96;58.16
62508;BME280;48556;51.972;4.624;2022-11-20T00:57:17;101428.53;;;3.82;58.39
62508;BME280;48556;51.972;4.624;2022-11-20T00:59:43;101434.50;;;3.78;58.91
62508;BME280;48556;51.972;4.624;2022-11-20T01:02:08;101426.16;;;3.90;59.20
62508;BME280;48556;51.972;4.624;2022-11-20T01:04:34;101432.28;;;3.58;59.52
62508;BME280;48556;51.972;4.624;2022-11-20T01:06:59;101435.06;;;3.65;59.42
62508;BME280;48556;51.972;4.624;2022-11-20T01:09:25;101427.13;;;3.60;59.38
62508;BME280;48556;51.972;4.624;2022-11-20T01:11:50;101425.56;;;3.67;59.10
62508;BME280;48556;51.972;4.624;2022-11-20T01:14:18;101433.47;;;3.70;59.36
62508;BME280;48556;51.972;4.624;2022-11-20T01:16:47;101433.59;;;3.76;58.72
62508;BME280;48556;51.972;4.624;2022-11-20T01:19:16;101430.00;;;3.71;58.31
62508;BME280;48556;51.972;4.624;2022-11-20T01:21:44;101436.53;;;3.88;58.09
62508;BME280;48556;51.972;4.624;2022-11-20T01:24:13;101431.66;;;3.67;58.75
62508;BME280;48556;51.972;4.624;2022-11-20T01:26:41;101427.22;;;3.63;59.04
62508;BME280;48556;51.972;4.624;2022-11-20T01:29:13;101425.13;;;3.50;59.35
62508;BME280;48556;51.972;4.624;2022-11-20T01:31:39;101419.94;;;3.51;59.71
62508;BME280;48556;51.972;4.624;2022-11-20T01:34:09;101407.19;;;3.61;59.19
62508;BME280;48556;51.972;4.624;2022-11-20T01:36:36;101401.19;;;3.30;60.66
62508;BME280;48556;51.972;4.624;2022-11-20T01:39:05;101411.44;;;3.25;60.71
62508;BME280;48556;51.972;4.624;2022-11-20T01:41:33;101415.28;;;3.38;60.07
62508;BME280;48556;51.972;4.624;2022-11-20T01:44:20;101414.13;;;3.27;60.22
62508;BME280;48556;51.972;4.624;2022-11-20T01:46:59;101421.19;;;3.32;60.05
62508;BME280;48556;51.972;4.624;2022-11-20T01:49:45;101421.31;;;3.37;60.31
62508;BME280;48556;51.972;4.624;2022-11-20T01:52:20;101420.47;;;3.38;60.11
62508;BME280;48556;51.972;4.624;2022-11-20T01:54:54;101418.00;;;3.42;59.69
62508;BME280;48556;51.972;4.624;2022-11-20T01:57:25;101413.78;;;3.46;59.32
62508;BME280;48556;51.972;4.624;2022-11-20T02:00:12;101423.84;;;3.34;59.38
62508;BME280;48556;51.972;4.624;2022-11-20T02:02:42;101416.72;;;3.27;59.58
62508;BME280;48556;51.972;4.624;2022-11-20T02:05:22;101411.59;;;3.30;59.55
62508;BME280;48556;51.972;4.624;2022-11-20T02:07:50;101411.66;;;3.33;60.41
62508;BME280;48556;51.972;4.624;2022-11-20T02:10:16;101412.47;;;3.30;60.49
62508;BME280;48556;51.972;4.624;2022-11-20T02:12:41;101420.63;;;3.44;60.11
62508;BME280;48556;51.972;4.624;2022-11-20T02:15:26;101413.03;;;3.18;60.89
62508;BME280;48556;51.972;4.624;2022-11-20T02:17:51;101409.81;;;3.29;60.68
62508;BME280;48556;51.972;4.624;2022-11-20T02:20:17;101411.56;;;3.28;60.58
62508;BME280;48556;51.972;4.624;2022-11-20T02:23:08;101413.94;;;3.20;60.56
62508;BME280;48556;51.972;4.624;2022-11-20T02:25:36;101418.44;;;3.28;60.29
62508;BME280;48556;51.972;4.624;2022-11-20T02:28:03;101409.03;;;3.31;60.14
62508;BME280;48556;51.972;4.624;2022-11-20T02:30:30;101411.06;;;3.11;59.94
62508;BME280;48556;51.972;4.624;2022-11-20T02:32:55;101416.84;;;3.01;61.09
62508;BME280;48556;51.972;4.624;2022-11-20T02:37:51;101408.13;;;3.31;60.93
62508;BME280;48556;51.972;4.624;2022-11-20T02:40:18;101412.69;;;3.06;62.17
62508;BME280;48556;51.972;4.624;2022-11-20T02:42:44;101407.41;;;3.03;62.55
62508;BME280;48556;51.972;4.624;2022-11-20T02:45:10;101412.06;;;2.84;63.97
62508;BME280;48556;51.972;4.624;2022-11-20T02:47:36;101403.75;;;2.96;63.74
62508;BME280;48556;51.972;4.624;2022-11-20T02:50:03;101397.13;;;2.77;64.16
62508;BME280;48556;51.972;4.624;2022-11-20T02:52:29;101390.91;;;3.02;63.33
62508;BME280;48556;51.972;4.624;2022-11-20T02:54:55;101383.00;;;2.98;63.38
62508;BME280;48556;51.972;4.624;2022-11-20T02:57:20;101398.31;;;2.88;63.61
62508;BME280;48556;51.972;4.624;2022-11-20T02:59:46;101381.31;;;3.00;62.80
62508;BME280;48556;51.972;4.624;2022-11-20T03:02:11;101379.31;;;2.89;62.86
62508;BME280;48556;51.972;4.624;2022-11-20T03:04:37;101374.59;;;3.08;62.36
62508;BME280;48556;51.972;4.624;2022-11-20T03:07:03;101370.16;;;3.04;62.60
62508;BME280;48556;51.972;4.624;2022-11-20T03:09:28;101367.00;;;2.82;63.10
62508;BME280;48556;51.972;4.624;2022-11-20T03:11:54;101375.97;;;2.94;62.41
62508;BME280;48556;51.972;4.624;2022-11-20T03:14:19;101371.66;;;2.96;62.63
62508;BME280;48556;51.972;4.624;2022-11-20T03:16:45;101364.22;;;3.08;61.95
62508;BME280;48556;51.972;4.624;2022-11-20T03:19:12;101357.09;;;3.01;61.37
62508;BME280;48556;51.972;4.624;2022-11-20T03:21:37;101344.53;;;2.84;61.88
62508;BME280;48556;51.972;4.624;2022-11-20T03:24:03;101347.53;;;3.00;62.18
62508;BME280;48556;51.972;4.624;2022-11-20T03:26:29;101354.91;;;2.84;62.93
62508;BME280;48556;51.972;4.624;2022-11-20T03:29:00;101359.19;;;2.82;62.89
62508;BME280;48556;51.972;4.624;2022-11-20T03:31:32;101351.59;;;2.90;62.20
62508;BME280;48556;51.972;4.624;2022-11-20T03:33:59;101345.69;;;2.64;62.60
62508;BME280;48556;51.972;4.624;2022-11-20T03:36:26;101342.59;;;2.77;62.75
62508;BME280;48556;51.972;4.624;2022-11-20T03:38:57;101339.84;;;2.71;62.21
62508;BME280;48556;51.972;4.624;2022-11-20T03:41:28;101335.56;;;2.73;62.45
62508;BME280;48556;51.972;4.624;2022-11-20T03:43:56;101337.47;;;2.80;62.26
62508;BME280;48556;51.972;4.624;2022-11-20T03:46:23;101320.59;;;2.64;62.60
62508;BME280;48556;51.972;4.624;2022-11-20T03:48:49;101325.28;;;2.78;62.50
62508;BME280;48556;51.972;4.624;2022-11-20T03:51:16;101324.56;;;2.51;63.07
62508;BME280;48556;51.972;4.624;2022-11-20T03:53:46;101322.41;;;2.67;62.46
62508;BME280;48556;51.972;4.624;2022-11-20T03:56:14;101332.56;;;2.59;62.88
62508;BME280;48556;51.972;4.624;2022-11-20T03:58:42;101336.50;;;2.75;62.96
62508;BME280;48556;51.972;4.624;2022-11-20T04:01:13;101337.59;;;2.24;64.19
62508;BME280;48556;51.972;4.624;2022-11-20T04:03:40;101342.25;;;2.65;63.33
62508;BME280;48556;51.972;4.624;2022-11-20T04:06:09;101321.38;;;2.62;63.43
62508;BME280;48556;51.972;4.624;2022-11-20T04:08:36;101321.75;;;2.74;63.12
62508;BME280;48556;51.972;4.624;2022-11-20T04:11:13;101312.38;;;2.79;62.85
62508;BME280;48556;51.972;4.624;2022-11-20T04:13:39;101304.16;;;2.64;63.18
62508;BME280;48556;51.972;4.624;2022-11-20T04:16:06;101297.91;;;2.57;63.49
62508;BME280;48556;51.972;4.624;2022-11-20T04:18:32;101294.31;;;2.53;63.32
62508;BME280;48556;51.972;4.624;2022-11-20T04:20:58;101300.19;;;2.46;64.18
62508;BME280;48556;51.972;4.624;2022-11-20T04:23:24;101294.22;;;2.49;63.94
62508;BME280;48556;51.972;4.624;2022-11-20T04:25:50;101298.84;;;2.61;63.85
62508;BME280;48556;51.972;4.624;2022-11-20T04:28:16;101300.56;;;2.60;63.45
62508;BME280;48556;51.972;4.624;2022-11-20T04:30:42;101296.13;;;2.56;63.77
62508;BME280;48556;51.972;4.624;2022-11-20T04:33:07;101292.41;;;2.46;64.31
62508;BME280;48556;51.972;4.624;2022-11-20T04:35:37;101299.13;;;2.70;62.88
62508;BME280;48556;51.972;4.624;2022-11-20T04:38:03;101289.97;;;2.52;63.75
62508;BME280;48556;51.972;4.624;2022-11-20T04:40:29;101288.31;;;2.54;63.36
62508;BME280;48556;51.972;4.624;2022-11-20T04:42:55;101283.94;;;2.53;63.72
62508;BME280;48556;51.972;4.624;2022-11-20T04:45:22;101285.31;;;2.71;63.21
62508;BME280;48556;51.972;4.624;2022-11-20T04:47:48;101290.50;;;2.71;63.69
62508;BME280;48556;51.972;4.624;2022-11-20T04:50:14;101294.63;;;2.64;63.71
62508;BME280;48556;51.972;4.624;2022-11-20T04:52:39;101290.81;;;2.51;64.13
62508;BME280;48556;51.972;4.624;2022-11-20T04:55:08;101288.56;;;2.64;64.10
62508;BME280;48556;51.972;4.624;2022-11-20T04:57:33;101290.38;;;2.68;64.44
62508;BME280;48556;51.972;4.624;2022-11-20T04:59:59;101287.72;;;2.65;64.68
62508;BME280;48556;51.972;4.624;2022-11-20T05:02:24;101286.84;;;2.64;63.94
62508;BME280;48556;51.972;4.624;2022-11-20T05:04:50;101283.03;;;2.51;63.73
62508;BME280;48556;51.972;4.624;2022-11-20T05:07:15;101285.59;;;2.50;63.46
62508;BME280;48556;51.972;4.624;2022-11-20T05:09:41;101280.13;;;2.71;62.75
62508;BME280;48556;51.972;4.624;2022-11-20T05:12:10;101289.88;;;2.49;63.21
62508;BME280;48556;51.972;4.624;2022-11-20T05:14:35;101288.31;;;2.54;63.46
62508;BME280;48556;51.972;4.624;2022-11-20T05:17:01;101304.22;;;2.67;63.57
62508;BME280;48556;51.972;4.624;2022-11-20T05:19:26;101302.91;;;2.51;64.18
62508;BME280;48556;51.972;4.624;2022-11-20T05:21:52;101294.13;;;2.46;63.92
62508;BME280;48556;51.972;4.624;2022-11-20T05:24:17;101290.06;;;2.55;63.62
62508;BME280;48556;51.972;4.624;2022-11-20T05:26:43;101303.59;;;2.76;63.15
62508;BME280;48556;51.972;4.624;2022-11-20T05:29:10;101308.38;;;2.60;63.64
62508;BME280;48556;51.972;4.624;2022-11-20T05:31:39;101300.63;;;2.62;63.24
62508;BME280;48556;51.972;4.624;2022-11-20T05:34:05;101297.91;;;2.57;63.67
62508;BME280;48556;51.972;4.624;2022-11-20T05:36:31;101297.19;;;2.63;63.23
62508;BME280;48556;51.972;4.624;2022-11-20T05:38:57;101293.06;;;2.69;63.22
62508;BME280;48556;51.972;4.624;2022-11-20T05:41:23;101290.28;;;2.63;63.25
62508;BME280;48556;51.972;4.624;2022-11-20T05:43:49;101283.81;;;2.49;62.74
62508;BME280;48556;51.972;4.624;2022-11-20T05:46:19;101276.94;;;2.51;62.97
62508;BME280;48556;51.972;4.624;2022-11-20T05:48:46;101274.38;;;2.52;63.38
62508;BME280;48556;51.972;4.624;2022-11-20T05:51:15;101273.50;;;2.52;63.53
62508;BME280;48556;51.972;4.624;2022-11-20T05:53:40;101271.22;;;2.63;63.35
62508;BME280;48556;51.972;4.624;2022-11-20T05:56:07;101272.72;;;2.54;63.85
62508;BME280;48556;51.972;4.624;2022-11-20T05:58:35;101269.69;;;2.69;63.14
62508;BME280;48556;51.972;4.624;2022-11-20T06:01:13;101277.63;;;2.76;63.49
62508;BME280;48556;51.972;4.624;2022-11-20T06:03:41;101283.19;;;2.58;63.93
62508;BME280;48556;51.972;4.624;2022-11-20T06:06:17;101274.38;;;2.52;63.97
62508;BME280;48556;51.972;4.624;2022-11-20T06:08:44;101258.72;;;2.49;64.70
62508;BME280;48556;51.972;4.624;2022-11-20T06:11:12;101253.53;;;2.49;65.78
62508;BME280;48556;51.972;4.624;2022-11-20T06:13:38;101244.66;;;2.41;66.53
62508;BME280;48556;51.972;4.624;2022-11-20T06:16:04;101247.75;;;1.70;69.36
62508;BME280;48556;51.972;4.624;2022-11-20T06:18:30;101238.78;;;2.16;68.08
62508;BME280;48556;51.972;4.624;2022-11-20T06:21:05;101241.94;;;2.36;68.34
62508;BME280;48556;51.972;4.624;2022-11-20T06:23:32;101247.59;;;2.53;67.62
62508;BME280;48556;51.972;4.624;2022-11-20T06:26:04;101251.50;;;2.69;66.41
62508;BME280;48556;51.972;4.624;2022-11-20T06:28:30;101247.50;;;2.82;65.82
62508;BME280;48556;51.972;4.624;2022-11-20T06:30:56;101237.22;;;2.87;65.35
62508;BME280;48556;51.972;4.624;2022-11-20T06:33:22;101239.47;;;2.73;65.12
62508;BME280;48556;51.972;4.624;2022-11-20T06:35:47;101237.13;;;2.50;65.53
62508;BME280;48556;51.972;4.624;2022-11-20T06:38:13;101244.41;;;2.32;67.07
62508;BME280;48556;51.972;4.624;2022-11-20T06:40:42;101240.53;;;2.17;67.79
62508;BME280;48556;51.972;4.624;2022-11-20T06:43:11;101239.88;;;2.56;66.75
62508;BME280;48556;51.972;4.624;2022-11-20T06:45:36;101234.66;;;2.55;66.03
62508;BME280;48556;51.972;4.624;2022-11-20T06:48:03;101227.59;;;2.49;66.65
62508;BME280;48556;51.972;4.624;2022-11-20T06:50:29;101229.97;;;2.42;66.58
62508;BME280;48556;51.972;4.624;2022-11-20T06:52:55;101226.72;;;2.18;67.37
62508;BME280;48556;51.972;4.624;2022-11-20T06:55:20;101226.44;;;2.09;68.02
62508;BME280;48556;51.972;4.624;2022-11-20T06:57:46;101230.22;;;2.20;68.01
62508;BME280;48556;51.972;4.624;2022-11-20T07:00:12;101231.75;;;2.12;68.59
62508;BME280;48556;51.972;4.624;2022-11-20T07:02:38;101229.59;;;2.28;68.99
62508;BME280;48556;51.972;4.624;2022-11-20T07:05:03;101223.38;;;2.22;69.15
62508;BME280;48556;51.972;4.624;2022-11-20T07:07:29;101220.78;;;2.53;68.64
62508;BME280;48556;51.972;4.624;2022-11-20T07:09:54;101224.06;;;2.47;69.20
62508;BME280;48556;51.972;4.624;2022-11-20T07:12:20;101218.50;;;2.65;69.09
62508;BME280;48556;51.972;4.624;2022-11-20T07:14:45;101219.66;;;2.77;68.97
62508;BME280;48556;51.972;4.624;2022-11-20T07:17:12;101226.94;;;2.58;69.86
62508;BME280;48556;51.972;4.624;2022-11-20T07:19:37;101227.50;;;2.46;70.59
62508;BME280;48556;51.972;4.624;2022-11-20T07:22:04;101214.38;;;2.40;71.06
62508;BME280;48556;51.972;4.624;2022-11-20T07:24:29;101211.09;;;2.15;71.56
62508;BME280;48556;51.972;4.624;2022-11-20T07:26:55;101226.66;;;2.15;72.82
62508;BME280;48556;51.972;4.624;2022-11-20T07:29:20;101223.34;;;2.21;72.26
62508;BME280;48556;51.972;4.624;2022-11-20T07:31:46;101233.72;;;2.21;72.74
62508;BME280;48556;51.972;4.624;2022-11-20T07:34:12;101233.47;;;2.44;71.39
62508;BME280;48556;51.972;4.624;2022-11-20T07:36:37;101233.22;;;2.66;70.58
62508;BME280;48556;51.972;4.624;2022-11-20T07:39:03;101236.31;;;2.51;71.05
62508;BME280;48556;51.972;4.624;2022-11-20T07:41:28;101232.44;;;2.37;71.17
62508;BME280;48556;51.972;4.624;2022-11-20T07:43:54;101242.91;;;2.40;71.41
62508;BME280;48556;51.972;4.624;2022-11-20T07:46:19;101230.84;;;2.42;71.34
62508;BME280;48556;51.972;4.624;2022-11-20T07:48:45;101230.22;;;2.51;71.61
62508;BME280;48556;51.972;4.624;2022-11-20T07:51:10;101235.59;;;2.57;71.44
62508;BME280;48556;51.972;4.624;2022-11-20T07:53:36;101226.00;;;2.88;70.46
62508;BME280;48556;51.972;4.624;2022-11-20T07:56:03;101215.44;;;2.82;70.52
62508;BME280;48556;51.972;4.624;2022-11-20T07:58:29;101225.50;;;2.05;72.83
62508;BME280;48556;51.972;4.624;2022-11-20T08:00:56;101230.34;;;2.24;73.46
62508;BME280;48556;51.972;4.624;2022-11-20T08:03:21;101231.91;;;2.18;73.59
62508;BME280;48556;51.972;4.624;2022-11-20T08:05:47;101236.66;;;2.33;72.97
62508;BME280;48556;51.972;4.624;2022-11-20T08:08:12;101242.72;;;2.34;73.15
62508;BME280;48556;51.972;4.624;2022-11-20T08:10:38;101228.75;;;2.61;72.68
62508;BME280;48556;51.972;4.624;2022-11-20T08:13:03;101224.50;;;2.96;71.51
62508;BME280;48556;51.972;4.624;2022-11-20T08:15:51;101220.50;;;3.11;70.90
62508;BME280;48556;51.972;4.624;2022-11-20T08:18:17;101207.09;;;2.94;71.44
62508;BME280;48556;51.972;4.624;2022-11-20T08:20:43;101194.47;;;3.07;71.74
62508;BME280;48556;51.972;4.624;2022-11-20T08:23:09;101196.94;;;3.39;72.20
62508;BME280;48556;51.972;4.624;2022-11-20T08:25:37;101208.13;;;3.75;70.71
62508;BME280;48556;51.972;4.624;2022-11-20T08:28:05;101209.97;;;3.79;70.18
62508;BME280;48556;51.972;4.624;2022-11-20T08:30:31;101213.94;;;4.03;69.56
62508;BME280;48556;51.972;4.624;2022-11-20T08:33:05;101207.75;;;3.98;68.01
62508;BME280;48556;51.972;4.624;2022-11-20T08:35:38;101206.72;;;3.89;68.67
62508;BME280;48556;51.972;4.624;2022-11-20T08:38:04;101208.91;;;4.10;68.48
62508;BME280;48556;51.972;4.624;2022-11-20T08:40:31;101204.03;;;4.27;67.75
62508;BME280;48556;51.972;4.624;2022-11-20T08:42:57;101211.84;;;3.86;68.92
62508;BME280;48556;51.972;4.624;2022-11-20T08:45:23;101203.84;;;3.75;69.10
62508;BME280;48556;51.972;4.624;2022-11-20T08:47:48;101206.81;;;3.54;70.64
62508;BME280;48556;51.972;4.624;2022-11-20T08:50:16;101213.28;;;3.34;71.57
62508;BME280;48556;51.972;4.624;2022-11-20T08:52:42;101217.16;;;3.51;72.47
62508;BME280;48556;51.972;4.624;2022-11-20T08:55:08;101207.53;;;3.11;74.02
62508;BME280;48556;51.972;4.624;2022-11-20T08:57:35;101203.22;;;3.48;73.05
62508;BME280;48556;51.972;4.624;2022-11-20T09:00:04;101200.22;;;3.69;72.10
62508;BME280;48556;51.972;4.624;2022-11-20T09:02:30;101211.78;;;3.83;71.78
62508;BME280;48556;51.972;4.624;2022-11-20T09:04:55;101206.47;;;3.77;71.13
62508;BME280;48556;51.972;4.624;2022-11-20T09:07:21;101203.41;;;3.57;72.71
62508;BME280;48556;51.972;4.624;2022-11-20T09:09:46;101186.72;;;3.47;72.81
62508;BME280;48556;51.972;4.624;2022-11-20T09:12:13;101174.72;;;3.54;73.84
62508;BME280;48556;51.972;4.624;2022-11-20T09:14:39;101174.50;;;3.83;72.76
62508;BME280;48556;51.972;4.624;2022-11-20T09:17:04;101184.25;;;3.52;73.47
62508;BME280;48556;51.972;4.624;2022-11-20T09:19:30;101187.75;;;3.93;72.68
62508;BME280;48556;51.972;4.624;2022-11-20T09:21:55;101172.13;;;3.93;72.36
62508;BME280;48556;51.972;4.624;2022-11-20T09:24:21;101158.47;;;3.64;73.26
62508;BME280;48556;51.972;4.624;2022-11-20T09:26:46;101163.50;;;3.98;73.43
62508;BME280;48556;51.972;4.624;2022-11-20T09:29:12;101167.97;;;3.61;74.64
62508;BME280;48556;51.972;4.624;2022-11-20T09:31:38;101159.56;;;3.74;74.99
62508;BME280;48556;51.972;4.624;2022-11-20T09:34:03;101157.84;;;4.17;74.33
62508;BME280;48556;51.972;4.624;2022-11-20T09:36:30;101139.72;;;4.22;74.12
62508;BME280;48556;51.972;4.624;2022-11-20T09:38:55;101136.66;;;4.44;73.49
62508;BME280;48556;51.972;4.624;2022-11-20T09:44:48;101125.94;;;4.78;71.86
62508;BME280;48556;51.972;4.624;2022-11-20T09:47:41;101132.97;;;4.32;73.42
62508;BME280;48556;51.972;4.624;2022-11-20T09:55:48;101116.75;;;5.02;73.08
62508;BME280;48556;51.972;4.624;2022-11-20T10:00:51;101111.56;;;5.03;72.40
62508;BME280;48556;51.972;4.624;2022-11-20T10:03:36;101110.34;;;5.39;71.60
62508;BME280;48556;51.972;4.624;2022-11-20T10:06:10;101093.78;;;5.36;71.47
62508;BME280;48556;51.972;4.624;2022-11-20T10:09:02;101090.22;;;5.27;72.13
62508;BME280;48556;51.972;4.624;2022-11-20T10:14:21;101084.31;;;5.44;71.63
62508;BME280;48556;51.972;4.624;2022-11-20T10:20:14;101065.50;;;5.67;70.45
62508;BME280;48556;51.972;4.624;2022-11-20T10:22:39;101052.31;;;5.54;71.68
62508;BME280;48556;51.972;4.624;2022-11-20T10:25:18;101054.72;;;5.39;72.38
62508;BME280;48556;51.972;4.624;2022-11-20T10:28:09;101038.28;;;5.44;72.00
62508;BME280;48556;51.972;4.624;2022-11-20T10:30:42;101038.28;;;5.46;72.95
62508;BME280;48556;51.972;4.624;2022-11-20T10:33:27;101030.97;;;5.19;74.33
62508;BME280;48556;51.972;4.624;2022-11-20T10:36:04;101017.84;;;5.85;72.67
62508;BME280;48556;51.972;4.624;2022-11-20T10:38:43;101017.81;;;5.81;73.02
62508;BME280;48556;51.972;4.624;2022-11-20T10:41:31;101016.84;;;5.72;72.70
62508;BME280;48556;51.972;4.624;2022-11-20T10:44:11;101014.63;;;6.07;72.59
62508;BME280;48556;51.972;4.624;2022-11-20T10:46:44;101002.66;;;6.31;71.54
62508;BME280;48556;51.972;4.624;2022-11-20T10:49:20;100996.41;;;6.15;72.79
62508;BME280;48556;51.972;4.624;2022-11-20T10:56:54;100991.88;;;5.97;75.14
62508;BME280;48556;51.972;4.624;2022-11-20T10:59:46;100994.47;;;5.19;77.68
62508;BME280;48556;51.972;4.624;2022-11-20T11:02:20;100993.53;;;5.12;78.78
62508;BME280;48556;51.972;4.624;2022-11-20T11:04:49;100976.72;;;5.60;77.73
62508;BME280;48556;51.972;4.624;2022-11-20T11:07:16;100972.41;;;5.62;77.97
62508;BME280;48556;51.972;4.624;2022-11-20T11:09:49;100979.19;;;5.46;78.90
62508;BME280;48556;51.972;4.624;2022-11-20T11:12:14;100968.50;;;6.08;77.36
62508;BME280;48556;51.972;4.624;2022-11-20T11:14:46;100969.97;;;5.78;78.69
62508;BME280;48556;51.972;4.624;2022-11-20T11:17:45;100966.81;;;6.10;77.05
62508;BME280;48556;51.972;4.624;2022-11-20T11:20:16;100954.75;;;6.27;76.39
62508;BME280;48556;51.972;4.624;2022-11-20T11:22:51;100948.75;;;6.41;76.45
62508;BME280;48556;51.972;4.624;2022-11-20T11:25:30;100935.38;;;5.97;77.64
62508;BME280;48556;51.972;4.624;2022-11-20T11:28:17;100927.25;;;5.67;79.23
62508;BME280;48556;51.972;4.624;2022-11-20T11:30:45;100926.44;;;5.77;79.15
62508;BME280;48556;51.972;4.624;2022-11-20T11:33:25;100908.19;;;5.80;80.10
62508;BME280;48556;51.972;4.624;2022-11-20T11:35:54;100893.38;;;5.76;80.14
62508;BME280;48556;51.972;4.624;2022-11-20T11:38:35;100887.34;;;5.85;79.61
62508;BME280;48556;51.972;4.624;2022-11-20T11:41:03;100886.66;;;5.98;78.71
62508;BME280;48556;51.972;4.624;2022-11-20T11:43:32;100874.38;;;5.89;80.60
62508;BME280;48556;51.972;4.624;2022-11-20T11:54:27;100817.31;;;6.48;79.52
62508;BME280;48556;51.972;4.624;2022-11-20T11:56:54;100813.88;;;6.54;79.39
62508;BME280;48556;51.972;4.624;2022-11-20T11:59:30;100825.03;;;6.23;80.35
62508;BME280;48556;51.972;4.624;2022-11-20T12:02:17;100825.88;;;6.18;80.85
62508;BME280;48556;51.972;4.624;2022-11-20T12:04:54;100823.94;;;5.93;82.13
62508;BME280;48556;51.972;4.624;2022-11-20T12:07:38;100838.59;;;5.76;84.07
62508;BME280;48556;51.972;4.624;2022-11-20T12:10:15;100838.94;;;5.18;86.72
62508;BME280;48556;51.972;4.624;2022-11-20T12:12:49;100840.13;;;5.49;86.05
62508;BME280;48556;51.972;4.624;2022-11-20T12:15:26;100833.69;;;5.16;87.10
62508;BME280;48556;51.972;4.624;2022-11-20T12:17:52;100829.66;;;5.47;86.49
62508;BME280;48556;51.972;4.624;2022-11-20T12:20:17;100820.06;;;5.45;86.74
62508;BME280;48556;51.972;4.624;2022-11-20T12:23:14;100824.28;;;5.27;88.00
62508;BME280;48556;51.972;4.624;2022-11-20T12:25:48;100807.13;;;5.54;87.47
62508;BME280;48556;51.972;4.624;2022-11-20T12:39:12;100802.72;;;5.47;87.56
62508;BME280;48556;51.972;4.624;2022-11-20T12:41:43;100787.53;;;6.09;85.96
62508;BME280;48556;51.972;4.624;2022-11-20T12:44:57;100779.69;;;6.09;85.46
62508;BME280;48556;51.972;4.624;2022-11-20T12:53:40;100749.34;;;6.32;83.89
62508;BME280;48556;51.972;4.624;2022-11-20T13:04:33;100737.03;;;6.07;85.31
62508;BME280;48556;51.972;4.624;2022-11-20T13:07:13;100731.91;;;6.25;85.96
62508;BME280;48556;51.972;4.624;2022-11-20T13:09:46;100731.06;;;6.32;84.91
62508;BME280;48556;51.972;4.624;2022-11-20T13:12:30;100731.94;;;6.38;84.92
62508;BME280;48556;51.972;4.624;2022-11-20T13:15:34;100715.47;;;6.49;84.95
62508;BME280;48556;51.972;4.624;2022-11-20T13:18:06;100716.34;;;6.62;84.15
62508;BME280;48556;51.972;4.624;2022-11-20T13:20:35;100711.88;;;6.24;85.93
62508;BME280;48556;51.972;4.624;2022-11-20T13:23:01;100714.28;;;5.86;87.02
62508;BME280;48556;51.972;4.624;2022-11-20T13:25:35;100712.69;;;6.08;86.89
62508;BME280;48556;51.972;4.624;2022-11-20T13:28:24;100704.81;;;5.98;87.50
62508;BME280;48556;51.972;4.624;2022-11-20T13:30:52;100702.13;;;5.89;87.97
62508;BME280;48556;51.972;4.624;2022-11-20T13:36:02;100697.22;;;6.82;84.83
62508;BME280;48556;51.972;4.624;2022-11-20T13:38:42;100695.50;;;6.87;84.51
62508;BME280;48556;51.972;4.624;2022-11-20T13:41:09;100686.59;;;6.12;86.55
62508;BME280;48556;51.972;4.624;2022-11-20T13:43:57;100680.69;;;6.78;85.38
62508;BME280;48556;51.972;4.624;2022-11-20T13:46:38;100680.69;;;6.88;84.76
62508;BME280;48556;51.972;4.624;2022-11-20T13:49:10;100671.06;;;6.63;85.47
62508;BME280;48556;51.972;4.624;2022-11-20T13:51:45;100658.91;;;6.87;84.97
62508;BME280;48556;51.972;4.624;2022-11-20T13:54:39;100655.41;;;6.85;84.21
62508;BME280;48556;51.972;4.624;2022-11-20T13:57:27;100656.28;;;6.69;84.87
62508;BME280;48556;51.972;4.624;2022-11-20T14:00:17;100640.59;;;6.64;86.02
62508;BME280;48556;51.972;4.624;2022-11-20T14:05:58;100619.66;;;6.52;86.65
62508;BME280;48556;51.972;4.624;2022-11-20T14:08:47;100597.94;;;6.57;88.04
62508;BME280;48556;51.972;4.624;2022-11-20T14:11:17;100597.84;;;6.11;89.63
62508;BME280;48556;51.972;4.624;2022-11-20T14:16:34;100589.16;;;6.29;89.81
62508;BME280;48556;51.972;4.624;2022-11-20T14:19:28;100591.81;;;6.40;89.88
62508;BME280;48556;51.972;4.624;2022-11-20T14:24:46;100565.66;;;6.27;90.23